createdAt,value
2023-09-28T00:01:56.674Z,13.40
2023-09-28T00:05:00.468Z,14.90
2023-09-28T00:08:06.592Z,14.65
2023-09-28T00:11:10.736Z,14.73
2023-09-28T00:14:14.521Z,12.60
2023-09-28T00:17:18.425Z,14.00
2023-09-28T00:20:24.372Z,13.57
2023-09-28T00:23:29.829Z,15.68
2023-09-28T00:26:33.802Z,13.20
2023-09-28T00:29:37.480Z,14.73
2023-09-28T00:32:42.877Z,12.85
2023-09-28T00:35:45.737Z,13.68
2023-09-28T00:38:52.134Z,14.15
2023-09-28T00:41:54.942Z,14.43
2023-09-28T00:45:00.638Z,11.38
2023-09-28T00:48:07.987Z,12.60
2023-09-28T00:51:10.643Z,13.03
2023-09-28T00:54:16.164Z,13.13
2023-09-28T00:57:19.239Z,13.65
2023-09-28T01:00:25.381Z,13.50
2023-09-28T01:03:28.579Z,11.52
2023-09-28T01:06:33.390Z,12.23
2023-09-28T01:09:39.478Z,13.10
2023-09-28T01:12:42.424Z,11.55
2023-09-28T01:15:48.898Z,12.73
2023-09-28T01:18:52.741Z,13.18
2023-09-28T01:21:57.748Z,11.57
2023-09-28T01:25:04.809Z,11.77
2023-09-28T01:28:08.417Z,13.60
2023-09-28T01:31:12.399Z,12.90
2023-09-28T01:34:15.247Z,12.35
2023-09-28T01:37:21.478Z,13.48
2023-09-28T01:40:25.776Z,11.50
2023-09-28T01:43:29.530Z,12.43
2023-09-28T01:46:32.296Z,11.63
2023-09-28T01:49:36.762Z,12.30
2023-09-28T01:52:39.520Z,11.27
2023-09-28T01:55:44.848Z,12.23
2023-09-28T01:58:50.770Z,13.38
2023-09-28T02:01:54.620Z,12.50
2023-09-28T02:04:58.973Z,11.55
2023-09-28T02:08:03.542Z,12.98
2023-09-28T02:11:08.736Z,15.07
2023-09-28T02:14:12.625Z,13.68
2023-09-28T02:17:15.531Z,15.70
2023-09-28T02:20:23.754Z,13.32
2023-09-28T02:23:27.591Z,13.83
2023-09-28T02:26:32.684Z,15.32
2023-09-28T02:29:35.608Z,16.48
2023-09-28T02:32:41.232Z,12.70
2023-09-28T02:35:45.263Z,14.75
2023-09-28T02:38:50.400Z,11.80
2023-09-28T02:41:56.909Z,13.20
2023-09-28T02:45:00.933Z,13.95
2023-09-28T02:48:05.707Z,12.02
2023-09-28T02:51:11.792Z,12.57
2023-09-28T02:54:14.801Z,10.20
2023-09-28T02:57:20.564Z,12.23
2023-09-28T03:00:25.957Z,12.60
2023-09-28T03:03:31.871Z,15.63
2023-09-28T03:06:38.502Z,13.45
2023-09-28T03:09:42.648Z,11.88
2023-09-28T03:12:48.697Z,11.90
2023-09-28T03:15:51.816Z,12.18
2023-09-28T03:18:58.330Z,11.77
2023-09-28T03:22:02.757Z,12.80
2023-09-28T03:25:11.488Z,13.07
2023-09-28T03:28:16.719Z,11.30
2023-09-28T03:31:20.885Z,16.00
2023-09-28T03:34:26.050Z,13.03
2023-09-28T03:37:30.002Z,12.35
2023-09-28T03:40:35.535Z,14.07
2023-09-28T03:43:40.732Z,13.38
2023-09-28T03:46:44.451Z,12.25
2023-09-28T03:49:48.201Z,14.70
2023-09-28T03:52:52.189Z,12.70
2023-09-28T03:55:56.358Z,11.57
2023-09-28T03:59:01.546Z,12.88
2023-09-28T04:02:06.005Z,12.88
2023-09-28T04:05:10.822Z,13.07
2023-09-28T04:08:14.641Z,11.52
2023-09-28T04:11:18.767Z,16.27
2023-09-28T04:14:23.919Z,14.23
2023-09-28T04:17:28.039Z,14.20
2023-09-28T04:20:32.042Z,14.13
2023-09-28T04:23:35.831Z,12.25
2023-09-28T04:26:39.728Z,13.53
2023-09-28T04:29:46.180Z,13.13
2023-09-28T04:32:52.105Z,12.30
2023-09-28T04:35:56.873Z,16.30
2023-09-28T04:39:00.743Z,15.73
2023-09-28T04:42:05.416Z,11.88
2023-09-28T04:45:13.172Z,15.25
2023-09-28T04:48:16.994Z,14.50
2023-09-28T04:51:20.673Z,13.15
2023-09-28T04:54:24.436Z,16.55
2023-09-28T04:57:28.809Z,15.13
2023-09-28T05:00:34.033Z,14.45
2023-09-28T05:03:38.172Z,13.27
2023-09-28T05:06:42.239Z,14.13
2023-09-28T05:09:46.308Z,15.20
2023-09-28T05:12:50.028Z,17.02
2023-09-28T05:15:55.349Z,19.60
2023-09-28T05:19:00.027Z,20.98
2023-09-28T05:22:06.684Z,16.88
2023-09-28T05:25:10.620Z,14.25
2023-09-28T05:28:14.460Z,17.87
2023-09-28T05:31:21.007Z,16.75
2023-09-28T05:34:25.647Z,16.13
2023-09-28T05:37:29.498Z,17.87
2023-09-28T05:40:33.692Z,14.57
2023-09-28T05:43:37.706Z,19.38
2023-09-28T05:46:42.821Z,16.08
2023-09-28T05:49:46.728Z,18.17
2023-09-28T05:52:53.449Z,18.20
2023-09-28T05:55:57.214Z,19.40
2023-09-28T05:59:00.888Z,15.90
2023-09-28T06:02:06.047Z,17.73
2023-09-28T06:05:11.221Z,17.67
2023-09-28T06:08:15.015Z,15.53
2023-09-28T06:11:20.008Z,19.65
2023-09-28T06:14:23.929Z,18.35
2023-09-28T06:17:29.175Z,15.57
2023-09-28T06:20:37.959Z,16.98
2023-09-28T06:23:43.728Z,16.77
2023-09-28T06:26:47.722Z,20.65
2023-09-28T06:29:54.510Z,19.73
2023-09-28T06:33:00.348Z,17.92
2023-09-28T06:36:05.204Z,20.20
2023-09-28T06:39:10.368Z,18.70
2023-09-28T06:42:30.989Z,17.52
2023-09-28T06:45:38.962Z,18.02
2023-09-28T06:48:44.265Z,16.63
2023-09-28T06:51:49.703Z,20.15
2023-09-28T06:54:53.672Z,21.42
2023-09-28T06:57:57.538Z,20.08
2023-09-28T07:01:01.406Z,16.87
2023-09-28T07:04:07.960Z,17.50
2023-09-28T07:07:14.841Z,20.75
2023-09-28T07:10:18.963Z,14.70
2023-09-28T07:13:22.737Z,15.70
2023-09-28T07:16:26.637Z,21.50
2023-09-28T07:19:32.052Z,17.55
2023-09-28T07:22:35.738Z,21.50
2023-09-28T07:25:41.502Z,17.83
2023-09-28T07:28:45.753Z,17.98
2023-09-28T07:31:49.904Z,17.00
2023-09-28T07:34:55.162Z,22.45
2023-09-28T07:37:59.052Z,19.10
2023-09-28T07:41:04.709Z,17.50
2023-09-28T07:44:08.732Z,16.13
2023-09-28T07:47:12.822Z,13.60
2023-09-28T07:50:18.712Z,18.50
2023-09-28T07:53:22.516Z,17.33
2023-09-28T07:56:26.592Z,16.77
2023-09-28T07:59:30.453Z,13.38
2023-09-28T08:02:34.626Z,12.27
2023-09-28T08:05:40.326Z,14.15
2023-09-28T08:08:44.224Z,13.45
2023-09-28T08:11:49.811Z,10.97
2023-09-28T08:14:53.933Z,13.27
2023-09-28T08:17:58.444Z,11.07
2023-09-28T08:21:10.565Z,13.30
2023-09-28T08:24:15.098Z,10.97
2023-09-28T08:27:18.881Z,7.97
2023-09-28T08:30:22.633Z,9.23
2023-09-28T08:33:26.500Z,11.73
2023-09-28T08:36:32.145Z,9.47
2023-09-28T08:39:38.247Z,10.77
2023-09-28T08:42:47.131Z,11.07
2023-09-28T08:45:54.616Z,8.57
2023-09-28T08:49:03.561Z,7.90
2023-09-28T08:52:09.313Z,15.18
2023-09-28T08:55:14.271Z,8.10
2023-09-28T08:58:19.345Z,11.00
2023-09-28T09:01:23.394Z,9.50
2023-09-28T09:04:27.534Z,12.00
2023-09-28T09:07:33.506Z,9.38
2023-09-28T09:10:39.075Z,17.98
2023-09-28T09:13:52.073Z,12.40
2023-09-28T09:16:57.379Z,10.95
2023-09-28T09:20:01.132Z,12.43
2023-09-28T09:23:15.175Z,11.98
2023-09-28T09:26:19.659Z,10.30
2023-09-28T09:29:23.711Z,10.00
2023-09-28T09:32:29.155Z,7.95
2023-09-28T09:35:32.921Z,8.45
2023-09-28T09:38:38.080Z,10.80
2023-09-28T09:41:48.124Z,8.63
2023-09-28T09:44:54.032Z,8.20
2023-09-28T09:47:58.983Z,9.27
2023-09-28T09:51:04.041Z,8.40
2023-09-28T09:54:12.796Z,7.60
2023-09-28T09:57:18.719Z,8.48
2023-09-28T10:00:25.160Z,7.53
2023-09-28T10:03:30.525Z,6.78
2023-09-28T10:06:34.853Z,6.35
2023-09-28T10:09:40.213Z,7.90
2023-09-28T10:12:44.750Z,7.68
2023-09-28T10:15:49.582Z,6.72
2023-09-28T10:18:55.684Z,4.53
2023-09-28T10:22:01.415Z,7.30
2023-09-28T10:25:07.821Z,6.53
2023-09-28T10:28:12.421Z,6.35
2023-09-28T10:31:18.567Z,6.68
2023-09-28T10:34:23.804Z,7.00
2023-09-28T10:37:28.420Z,5.85
2023-09-28T10:40:48.393Z,6.60
2023-09-28T10:43:58.447Z,7.32
2023-09-28T10:47:02.662Z,6.85
2023-09-28T10:50:09.793Z,7.10
2023-09-28T10:53:14.256Z,6.47
2023-09-28T10:56:19.960Z,5.83
2023-09-28T10:59:25.396Z,5.72
2023-09-28T11:02:32.990Z,5.80
2023-09-28T11:05:38.659Z,9.30
2023-09-28T11:08:44.690Z,6.20
2023-09-28T11:11:50.974Z,6.20
2023-09-28T11:14:57.099Z,7.00
2023-09-28T11:18:01.286Z,9.93
2023-09-28T11:21:05.689Z,6.43
2023-09-28T11:24:09.931Z,4.60
2023-09-28T11:27:15.997Z,6.20
2023-09-28T11:30:21.378Z,5.22
2023-09-28T11:33:25.137Z,7.38
2023-09-28T11:36:29.691Z,6.25
2023-09-28T11:39:34.215Z,6.30
2023-09-28T11:42:44.163Z,5.80
2023-09-28T11:45:50.462Z,6.63
2023-09-28T11:49:05.684Z,6.97
2023-09-28T11:52:09.739Z,8.13
2023-09-28T11:55:16.272Z,8.38
2023-09-28T11:58:24.890Z,6.10
2023-09-28T12:01:29.709Z,8.68
2023-09-28T12:04:33.909Z,5.18
2023-09-28T12:07:37.697Z,5.53
2023-09-28T12:10:41.509Z,5.63
2023-09-28T12:13:47.784Z,4.53
2023-09-28T12:16:53.329Z,5.90
2023-09-28T12:19:57.736Z,5.35
2023-09-28T12:23:03.781Z,5.70
2023-09-28T12:26:08.021Z,4.78
2023-09-28T12:29:13.823Z,5.73
2023-09-28T12:32:17.760Z,4.22
2023-09-28T12:35:22.648Z,4.13
2023-09-28T12:38:26.558Z,7.53
2023-09-28T12:41:31.097Z,4.30
2023-09-28T12:44:36.361Z,5.67
2023-09-28T12:47:40.475Z,5.97
2023-09-28T12:50:45.109Z,5.93
2023-09-28T12:53:48.960Z,5.18
2023-09-28T12:56:53.882Z,6.70
2023-09-28T12:59:58.997Z,4.60
2023-09-28T13:03:08.136Z,5.38
2023-09-28T13:06:12.029Z,6.43
2023-09-28T13:09:15.952Z,6.25
2023-09-28T13:12:19.799Z,5.28
2023-09-28T13:15:25.337Z,5.30
2023-09-28T13:18:30.532Z,7.60
2023-09-28T13:21:35.072Z,6.20
2023-09-28T13:24:39.144Z,4.28
2023-09-28T13:27:42.947Z,5.45
2023-09-28T13:30:48.356Z,5.20
2023-09-28T13:33:52.868Z,7.22
2023-09-28T13:36:57.469Z,4.82
2023-09-28T13:40:02.115Z,4.22
2023-09-28T13:43:07.013Z,5.78
2023-09-28T13:46:12.282Z,5.67
2023-09-28T13:49:16.488Z,6.55
2023-09-28T13:52:20.302Z,7.30
2023-09-28T13:55:24.404Z,7.10
2023-09-28T13:58:28.803Z,6.25
2023-09-28T14:01:34.115Z,7.00
2023-09-28T14:04:38.304Z,4.25
2023-09-28T14:07:42.072Z,8.13
2023-09-28T14:10:47.257Z,7.25
2023-09-28T14:13:51.278Z,6.50
2023-09-28T14:17:05.607Z,6.83
2023-09-28T14:20:16.595Z,4.78
2023-09-28T14:23:20.418Z,6.32
2023-09-28T14:26:24.362Z,5.40
2023-09-28T14:29:28.079Z,5.10
2023-09-28T14:32:33.405Z,7.13
2023-09-28T14:35:39.721Z,9.02
2023-09-28T14:38:43.414Z,10.13
2023-09-28T14:41:47.227Z,4.88
2023-09-28T14:44:53.135Z,5.45
2023-09-28T14:47:58.276Z,8.23
2023-09-28T14:51:02.160Z,5.68
2023-09-28T14:54:06.780Z,7.32
2023-09-28T14:57:11.344Z,7.20
2023-09-28T15:00:16.841Z,7.63
2023-09-28T15:03:22.950Z,6.37
2023-09-28T15:06:26.845Z,5.47
2023-09-28T15:09:30.838Z,5.05
2023-09-28T15:12:34.930Z,5.65
2023-09-28T15:15:41.100Z,6.05
2023-09-28T15:18:46.795Z,5.93
2023-09-28T15:21:50.908Z,6.25
2023-09-28T15:24:54.743Z,6.43
2023-09-28T15:27:58.583Z,11.68
2023-09-28T15:31:02.280Z,9.43
2023-09-28T15:34:07.657Z,8.13
2023-09-28T15:37:13.025Z,6.93
2023-09-28T15:40:16.913Z,6.63
2023-09-28T15:43:21.048Z,6.40
2023-09-28T15:46:24.840Z,7.75
2023-09-28T15:49:30.240Z,10.37
2023-09-28T15:52:34.345Z,4.65
2023-09-28T15:55:38.007Z,7.95
2023-09-28T15:58:41.808Z,7.78
2023-09-28T16:01:46.989Z,7.38
2023-09-28T16:04:52.170Z,7.27
2023-09-28T16:07:57.203Z,5.60
2023-09-28T16:11:01.675Z,9.48
2023-09-28T16:14:05.448Z,7.18
2023-09-28T16:17:09.996Z,6.32
2023-09-28T16:20:15.209Z,8.50
2023-09-28T16:23:19.808Z,8.05
2023-09-28T16:26:23.610Z,7.50
2023-09-28T16:29:27.789Z,4.68
2023-09-28T16:32:31.469Z,7.13
2023-09-28T16:35:36.747Z,8.13
2023-09-28T16:38:40.798Z,7.57
2023-09-28T16:41:46.241Z,9.00
2023-09-28T16:44:50.070Z,6.00
2023-09-28T16:47:54.852Z,6.60
2023-09-28T16:51:00.018Z,5.47
2023-09-28T16:54:05.259Z,8.25
2023-09-28T16:57:09.191Z,9.27
2023-09-28T17:00:14.138Z,11.10
2023-09-28T17:03:18.208Z,6.53
2023-09-28T17:06:23.452Z,5.87
2023-09-28T17:09:27.704Z,11.43
2023-09-28T17:12:43.381Z,8.10
2023-09-28T17:15:49.805Z,6.55
2023-09-28T17:18:53.943Z,10.25
2023-09-28T17:21:59.111Z,9.80
2023-09-28T17:25:03.288Z,8.82
2023-09-28T17:28:07.823Z,10.82
2023-09-28T17:31:11.834Z,9.82
2023-09-28T17:34:15.588Z,13.00
2023-09-28T17:37:21.057Z,8.43
2023-09-28T17:40:24.795Z,9.20
2023-09-28T17:43:28.741Z,9.55
2023-09-28T17:46:32.504Z,10.55
2023-09-28T17:49:36.339Z,12.48
2023-09-28T17:52:41.486Z,13.10
2023-09-28T17:55:47.110Z,12.73
2023-09-28T17:58:52.553Z,12.40
2023-09-28T18:01:57.211Z,9.77
2023-09-28T18:05:02.998Z,14.00
2023-09-28T18:08:09.018Z,11.57
2023-09-28T18:11:12.888Z,12.02
2023-09-28T18:14:17.137Z,11.07
2023-09-28T18:17:21.234Z,8.80
2023-09-28T18:20:25.315Z,10.68
2023-09-28T18:23:30.604Z,11.88
2023-09-28T18:26:34.798Z,9.33
2023-09-28T18:29:39.491Z,10.55
2023-09-28T18:32:43.277Z,12.63
2023-09-28T18:35:47.605Z,12.18
2023-09-28T18:39:07.544Z,14.57
2023-09-28T18:42:16.205Z,13.77
2023-09-28T18:45:20.041Z,10.20
2023-09-28T18:48:24.722Z,12.15
2023-09-28T18:51:28.623Z,17.83
2023-09-28T18:54:33.769Z,14.85
2023-09-28T18:57:38.002Z,10.65
2023-09-28T19:00:41.885Z,12.57
2023-09-28T19:03:45.793Z,12.40
2023-09-28T19:06:49.852Z,12.60
2023-09-28T19:09:55.548Z,13.10
2023-09-28T19:12:59.333Z,14.43
2023-09-28T19:16:06.408Z,12.50
2023-09-28T19:19:10.399Z,11.98
2023-09-28T19:22:16.915Z,13.52
2023-09-28T19:25:23.482Z,13.33
2023-09-28T19:28:28.274Z,15.10
2023-09-28T19:31:32.628Z,13.50
2023-09-28T19:34:36.238Z,14.50
2023-09-28T19:37:41.179Z,12.03
2023-09-28T19:40:46.463Z,15.18
2023-09-28T19:43:50.408Z,13.85
2023-09-28T19:46:54.335Z,14.02
2023-09-28T19:49:58.177Z,12.77
2023-09-28T19:53:02.092Z,10.75
2023-09-28T19:56:09.294Z,12.57
2023-09-28T19:59:12.978Z,20.23
2023-09-28T20:02:16.971Z,13.20
2023-09-28T20:05:20.776Z,12.30
2023-09-28T20:08:24.797Z,14.93
2023-09-28T20:11:30.037Z,16.02
2023-09-28T20:14:33.797Z,14.50
2023-09-28T20:17:38.214Z,13.25
2023-09-28T20:20:42.046Z,12.25
2023-09-28T20:23:45.696Z,16.90
2023-09-28T20:26:50.953Z,13.30
2023-09-28T20:29:55.095Z,16.00
2023-09-28T20:32:58.942Z,13.95
2023-09-28T20:36:14.036Z,15.30
2023-09-28T20:39:21.489Z,14.57
2023-09-28T20:42:31.485Z,12.93
2023-09-28T20:45:43.072Z,15.27
2023-09-28T20:48:48.417Z,16.80
2023-09-28T20:51:58.530Z,14.63
2023-09-28T20:55:06.960Z,15.25
2023-09-28T20:58:17.480Z,15.63
2023-09-28T21:01:22.712Z,13.88
2023-09-28T21:04:36.923Z,20.73
2023-09-28T21:07:46.631Z,16.40
2023-09-28T21:10:50.632Z,16.67
2023-09-28T21:13:56.205Z,12.35
2023-09-28T21:17:00.127Z,77.28
2023-09-28T21:20:04.346Z,16.30
2023-09-28T21:23:08.394Z,15.32
2023-09-28T21:26:13.241Z,16.85
2023-09-28T21:29:18.470Z,15.35
2023-09-28T21:32:22.713Z,16.42
2023-09-28T21:35:26.510Z,24.33
2023-09-28T21:38:30.360Z,16.23
2023-09-28T21:41:34.448Z,17.03
2023-09-28T21:44:39.973Z,16.02
2023-09-28T21:47:44.047Z,15.55
2023-09-28T21:50:47.885Z,19.27
2023-09-28T21:53:51.612Z,21.25
2023-09-28T21:56:55.685Z,18.98
2023-09-28T22:00:00.817Z,16.42
2023-09-28T22:03:06.655Z,20.92
2023-09-28T22:06:10.805Z,17.65
2023-09-28T22:09:15.159Z,16.30
2023-09-28T22:12:19.143Z,16.53
2023-09-28T22:15:24.898Z,14.32
2023-09-28T22:18:28.650Z,19.83
2023-09-28T22:21:32.511Z,17.17
2023-09-28T22:24:36.368Z,17.27
2023-09-28T22:27:41.008Z,19.02
2023-09-28T22:30:46.122Z,16.33
2023-09-28T22:33:50.035Z,15.27
2023-09-28T22:36:53.705Z,16.77
2023-09-28T22:40:02.832Z,15.77
2023-09-28T22:43:12.314Z,18.03
2023-09-28T22:46:17.981Z,16.30
2023-09-28T22:49:21.738Z,14.32
2023-09-28T22:52:27.226Z,14.67
2023-09-28T22:55:30.886Z,18.70
2023-09-28T22:58:34.903Z,17.13
2023-09-28T23:01:40.431Z,18.95
2023-09-28T23:04:44.175Z,17.08
2023-09-28T23:07:48.554Z,17.80
2023-09-28T23:10:55.307Z,14.75
2023-09-28T23:13:59.128Z,18.47
2023-09-28T23:17:04.284Z,17.10
2023-09-28T23:20:11.280Z,15.75
2023-09-28T23:23:17.625Z,16.67
2023-09-28T23:26:24.423Z,16.88
2023-09-28T23:29:30.028Z,19.55
2023-09-28T23:32:37.845Z,19.83
2023-09-28T23:35:42.534Z,16.08
2023-09-28T23:38:47.749Z,18.42
2023-09-28T23:41:53.622Z,17.15
2023-09-28T23:44:57.492Z,16.83
2023-09-28T23:48:05.655Z,14.80
2023-09-28T23:51:12.937Z,14.50
2023-09-28T23:54:18.259Z,15.97
2023-09-28T23:57:22.054Z,15.82
